sensor_id;sensor_type;location;lat;lon;timestamp;P1;durP1;ratioP1;P2;durP2;ratioP2
20535;SDS011;10426;49.420;8.390;2022-07-03T00:01:53;2.80;;;1.83;;
20535;SDS011;10426;49.420;8.390;2022-07-03T00:04:20;3.63;;;1.60;;
20535;SDS011;10426;49.420;8.390;2022-07-03T00:06:47;2.25;;;1.55;;
20535;SDS011;10426;49.420;8.390;2022-07-03T00:09:14;2.30;;;1.50;;
20535;SDS011;10426;49.420;8.390;2022-07-03T00:11:41;2.10;;;1.50;;
20535;SDS011;10426;49.420;8.390;2022-07-03T00:14:08;2.20;;;1.53;;
20535;SDS011;10426;49.420;8.390;2022-07-03T00:16:35;2.08;;;1.70;;
20535;SDS011;10426;49.420;8.390;2022-07-03T00:19:03;1.63;;;1.30;;
20535;SDS011;10426;49.420;8.390;2022-07-03T00:21:31;1.67;;;1.50;;
20535;SDS011;10426;49.420;8.390;2022-07-03T00:24:00;1.55;;;1.40;;
20535;SDS011;10426;49.420;8.390;2022-07-03T00:26:29;2.90;;;1.50;;
20535;SDS011;10426;49.420;8.390;2022-07-03T00:28:56;4.03;;;1.60;;
20535;SDS011;10426;49.420;8.390;2022-07-03T00:31:24;1.48;;;1.38;;
20535;SDS011;10426;49.420;8.390;2022-07-03T00:33:51;1.55;;;1.45;;
20535;SDS011;10426;49.420;8.390;2022-07-03T00:36:20;2.63;;;1.70;;
20535;SDS011;10426;49.420;8.390;2022-07-03T00:38:47;2.70;;;1.60;;
20535;SDS011;10426;49.420;8.390;2022-07-03T00:41:23;1.50;;;1.40;;
20535;SDS011;10426;49.420;8.390;2022-07-03T00:43:50;1.67;;;1.50;;
20535;SDS011;10426;49.420;8.390;2022-07-03T00:46:18;2.35;;;1.40;;
20535;SDS011;10426;49.420;8.390;2022-07-03T00:48:47;1.70;;;1.33;;
20535;SDS011;10426;49.420;8.390;2022-07-03T00:51:15;1.50;;;1.40;;
20535;SDS011;10426;49.420;8.390;2022-07-03T00:53:46;2.65;;;1.50;;
20535;SDS011;10426;49.420;8.390;2022-07-03T00:56:13;2.00;;;1.50;;
20535;SDS011;10426;49.420;8.390;2022-07-03T00:58:39;1.58;;;1.48;;
20535;SDS011;10426;49.420;8.390;2022-07-03T01:01:07;2.85;;;1.40;;
20535;SDS011;10426;49.420;8.390;2022-07-03T01:03:35;1.55;;;1.45;;
20535;SDS011;10426;49.420;8.390;2022-07-03T01:06:08;1.50;;;1.40;;
20535;SDS011;10426;49.420;8.390;2022-07-03T01:08:37;3.03;;;1.50;;
20535;SDS011;10426;49.420;8.390;2022-07-03T01:11:10;1.67;;;1.35;;
20535;SDS011;10426;49.420;8.390;2022-07-03T01:13:43;1.30;;;1.30;;
20535;SDS011;10426;49.420;8.390;2022-07-03T01:16:14;1.30;;;1.30;;
20535;SDS011;10426;49.420;8.390;2022-07-03T01:18:44;1.65;;;1.55;;
20535;SDS011;10426;49.420;8.390;2022-07-03T01:21:14;2.13;;;1.40;;
20535;SDS011;10426;49.420;8.390;2022-07-03T01:23:48;1.50;;;1.40;;
20535;SDS011;10426;49.420;8.390;2022-07-03T01:26:17;1.48;;;1.38;;
20535;SDS011;10426;49.420;8.390;2022-07-03T01:28:45;1.45;;;1.40;;
20535;SDS011;10426;49.420;8.390;2022-07-03T01:31:13;1.90;;;1.48;;
20535;SDS011;10426;49.420;8.390;2022-07-03T01:33:44;1.60;;;1.50;;
20535;SDS011;10426;49.420;8.390;2022-07-03T01:36:12;1.80;;;1.50;;
20535;SDS011;10426;49.420;8.390;2022-07-03T01:38:39;1.80;;;1.60;;
20535;SDS011;10426;49.420;8.390;2022-07-03T01:41:07;1.55;;;1.45;;
20535;SDS011;10426;49.420;8.390;2022-07-03T01:43:36;1.75;;;1.65;;
20535;SDS011;10426;49.420;8.390;2022-07-03T01:46:03;1.38;;;1.35;;
20535;SDS011;10426;49.420;8.390;2022-07-03T01:48:31;1.50;;;1.40;;
20535;SDS011;10426;49.420;8.390;2022-07-03T01:50:58;1.70;;;1.60;;
20535;SDS011;10426;49.420;8.390;2022-07-03T01:53:26;1.67;;;1.57;;
20535;SDS011;10426;49.420;8.390;2022-07-03T01:55:54;3.00;;;1.60;;
20535;SDS011;10426;49.420;8.390;2022-07-03T01:58:21;1.50;;;1.40;;
20535;SDS011;10426;49.420;8.390;2022-07-03T02:00:50;2.55;;;1.65;;
20535;SDS011;10426;49.420;8.390;2022-07-03T02:03:24;1.55;;;1.45;;
20535;SDS011;10426;49.420;8.390;2022-07-03T02:05:52;1.80;;;1.70;;
20535;SDS011;10426;49.420;8.390;2022-07-03T02:08:37;1.60;;;1.50;;
20535;SDS011;10426;49.420;8.390;2022-07-03T02:11:09;1.90;;;1.80;;
20535;SDS011;10426;49.420;8.390;2022-07-03T02:13:37;1.60;;;1.50;;
20535;SDS011;10426;49.420;8.390;2022-07-03T02:16:06;1.50;;;1.40;;
20535;SDS011;10426;49.420;8.390;2022-07-03T02:18:35;1.50;;;1.50;;
20535;SDS011;10426;49.420;8.390;2022-07-03T02:21:03;2.15;;;1.48;;
20535;SDS011;10426;49.420;8.390;2022-07-03T02:23:31;1.52;;;1.45;;
20535;SDS011;10426;49.420;8.390;2022-07-03T02:25:59;1.80;;;1.70;;
20535;SDS011;10426;49.420;8.390;2022-07-03T02:28:30;1.70;;;1.60;;
20535;SDS011;10426;49.420;8.390;2022-07-03T02:31:01;2.03;;;1.50;;
20535;SDS011;10426;49.420;8.390;2022-07-03T02:33:30;1.70;;;1.60;;
20535;SDS011;10426;49.420;8.390;2022-07-03T02:35:57;1.77;;;1.67;;
20535;SDS011;10426;49.420;8.390;2022-07-03T02:38:24;1.65;;;1.55;;
20535;SDS011;10426;49.420;8.390;2022-07-03T02:40:55;1.80;;;1.52;;
20535;SDS011;10426;49.420;8.390;2022-07-03T02:43:23;1.40;;;1.30;;
20535;SDS011;10426;49.420;8.390;2022-07-03T02:45:52;1.42;;;1.38;;
20535;SDS011;10426;49.420;8.390;2022-07-03T02:48:26;1.70;;;1.60;;
20535;SDS011;10426;49.420;8.390;2022-07-03T02:50:57;1.63;;;1.53;;
20535;SDS011;10426;49.420;8.390;2022-07-03T02:53:26;1.63;;;1.52;;
20535;SDS011;10426;49.420;8.390;2022-07-03T02:55:56;1.70;;;1.60;;
20535;SDS011;10426;49.420;8.390;2022-07-03T02:58:41;1.80;;;1.70;;
20535;SDS011;10426;49.420;8.390;2022-07-03T03:01:13;2.05;;;1.52;;
20535;SDS011;10426;49.420;8.390;2022-07-03T03:03:43;1.88;;;1.67;;
20535;SDS011;10426;49.420;8.390;2022-07-03T03:06:13;3.40;;;1.90;;
20535;SDS011;10426;49.420;8.390;2022-07-03T03:08:42;1.80;;;1.70;;
20535;SDS011;10426;49.420;8.390;2022-07-03T03:11:09;1.80;;;1.70;;
20535;SDS011;10426;49.420;8.390;2022-07-03T03:13:40;2.05;;;1.95;;
20535;SDS011;10426;49.420;8.390;2022-07-03T03:16:11;4.28;;;1.80;;
20535;SDS011;10426;49.420;8.390;2022-07-03T03:18:38;2.00;;;1.88;;
20535;SDS011;10426;49.420;8.390;2022-07-03T03:21:05;2.20;;;1.73;;
20535;SDS011;10426;49.420;8.390;2022-07-03T03:23:43;2.13;;;1.80;;
20535;SDS011;10426;49.420;8.390;2022-07-03T03:26:10;1.90;;;1.80;;
20535;SDS011;10426;49.420;8.390;2022-07-03T03:28:38;1.90;;;1.80;;
20535;SDS011;10426;49.420;8.390;2022-07-03T03:31:05;1.95;;;1.85;;
20535;SDS011;10426;49.420;8.390;2022-07-03T03:33:35;1.92;;;1.83;;
20535;SDS011;10426;49.420;8.390;2022-07-03T03:36:03;2.78;;;2.00;;
20535;SDS011;10426;49.420;8.390;2022-07-03T03:38:30;2.25;;;1.70;;
20535;SDS011;10426;49.420;8.390;2022-07-03T03:40:58;1.90;;;1.80;;
20535;SDS011;10426;49.420;8.390;2022-07-03T03:43:25;1.93;;;1.83;;
20535;SDS011;10426;49.420;8.390;2022-07-03T03:45:52;1.73;;;1.63;;
20535;SDS011;10426;49.420;8.390;2022-07-03T03:48:18;1.90;;;1.80;;
20535;SDS011;10426;49.420;8.390;2022-07-03T03:50:45;2.00;;;1.80;;
20535;SDS011;10426;49.420;8.390;2022-07-03T03:53:12;1.80;;;1.70;;
20535;SDS011;10426;49.420;8.390;2022-07-03T03:55:51;1.60;;;1.60;;
20535;SDS011;10426;49.420;8.390;2022-07-03T03:58:19;1.77;;;1.60;;
20535;SDS011;10426;49.420;8.390;2022-07-03T04:00:46;1.83;;;1.73;;
20535;SDS011;10426;49.420;8.390;2022-07-03T04:03:12;1.90;;;1.80;;
20535;SDS011;10426;49.420;8.390;2022-07-03T04:05:39;1.90;;;1.70;;
20535;SDS011;10426;49.420;8.390;2022-07-03T04:08:06;2.70;;;1.80;;
20535;SDS011;10426;49.420;8.390;2022-07-03T04:10:33;1.77;;;1.67;;
20535;SDS011;10426;49.420;8.390;2022-07-03T04:13:00;2.10;;;1.90;;
20535;SDS011;10426;49.420;8.390;2022-07-03T04:15:28;3.60;;;1.80;;
20535;SDS011;10426;49.420;8.390;2022-07-03T04:17:55;2.00;;;1.90;;
20535;SDS011;10426;49.420;8.390;2022-07-03T04:20:22;1.90;;;1.80;;
20535;SDS011;10426;49.420;8.390;2022-07-03T04:22:48;1.90;;;1.80;;
20535;SDS011;10426;49.420;8.390;2022-07-03T04:25:15;2.15;;;1.95;;
20535;SDS011;10426;49.420;8.390;2022-07-03T04:27:42;2.00;;;1.90;;
20535;SDS011;10426;49.420;8.390;2022-07-03T04:30:09;2.20;;;2.00;;
20535;SDS011;10426;49.420;8.390;2022-07-03T04:32:37;2.55;;;2.20;;
20535;SDS011;10426;49.420;8.390;2022-07-03T04:35:04;2.03;;;1.83;;
20535;SDS011;10426;49.420;8.390;2022-07-03T04:37:31;1.90;;;1.80;;
20535;SDS011;10426;49.420;8.390;2022-07-03T04:39:58;2.35;;;2.00;;
20535;SDS011;10426;49.420;8.390;2022-07-03T04:42:25;2.17;;;1.90;;
20535;SDS011;10426;49.420;8.390;2022-07-03T04:44:52;2.08;;;1.98;;
20535;SDS011;10426;49.420;8.390;2022-07-03T04:47:18;3.63;;;2.00;;
20535;SDS011;10426;49.420;8.390;2022-07-03T04:49:47;1.90;;;1.80;;
20535;SDS011;10426;49.420;8.390;2022-07-03T04:52:14;1.90;;;1.80;;
20535;SDS011;10426;49.420;8.390;2022-07-03T04:54:40;2.20;;;2.00;;
20535;SDS011;10426;49.420;8.390;2022-07-03T04:57:07;5.13;;;2.10;;
20535;SDS011;10426;49.420;8.390;2022-07-03T04:59:34;1.92;;;1.75;;
20535;SDS011;10426;49.420;8.390;2022-07-03T05:02:00;1.90;;;1.80;;
20535;SDS011;10426;49.420;8.390;2022-07-03T05:04:27;2.25;;;1.85;;
20535;SDS011;10426;49.420;8.390;2022-07-03T05:06:55;2.70;;;1.80;;
20535;SDS011;10426;49.420;8.390;2022-07-03T05:09:22;2.70;;;1.77;;
20535;SDS011;10426;49.420;8.390;2022-07-03T05:11:48;1.80;;;1.70;;
20535;SDS011;10426;49.420;8.390;2022-07-03T05:14:15;1.92;;;1.83;;
20535;SDS011;10426;49.420;8.390;2022-07-03T05:16:42;1.90;;;1.80;;
20535;SDS011;10426;49.420;8.390;2022-07-03T05:19:09;4.60;;;1.83;;
20535;SDS011;10426;49.420;8.390;2022-07-03T05:21:35;1.90;;;1.80;;
20535;SDS011;10426;49.420;8.390;2022-07-03T05:24:04;1.92;;;1.50;;
20535;SDS011;10426;49.420;8.390;2022-07-03T05:26:30;1.70;;;1.60;;
20535;SDS011;10426;49.420;8.390;2022-07-03T05:28:57;2.13;;;1.60;;
20535;SDS011;10426;49.420;8.390;2022-07-03T05:31:24;1.70;;;1.60;;
20535;SDS011;10426;49.420;8.390;2022-07-03T05:33:50;1.70;;;1.60;;
20535;SDS011;10426;49.420;8.390;2022-07-03T05:36:17;1.60;;;1.50;;
20535;SDS011;10426;49.420;8.390;2022-07-03T05:38:44;1.38;;;1.38;;
20535;SDS011;10426;49.420;8.390;2022-07-03T05:41:29;2.58;;;1.40;;
20535;SDS011;10426;49.420;8.390;2022-07-03T05:43:56;4.70;;;1.33;;
20535;SDS011;10426;49.420;8.390;2022-07-03T05:46:23;1.70;;;1.42;;
20535;SDS011;10426;49.420;8.390;2022-07-03T05:48:50;1.23;;;1.23;;
20535;SDS011;10426;49.420;8.390;2022-07-03T05:51:17;1.33;;;1.30;;
20535;SDS011;10426;49.420;8.390;2022-07-03T05:53:44;1.20;;;1.20;;
20535;SDS011;10426;49.420;8.390;2022-07-03T05:56:10;2.97;;;1.20;;
20535;SDS011;10426;49.420;8.390;2022-07-03T05:58:38;1.90;;;1.17;;
20535;SDS011;10426;49.420;8.390;2022-07-03T06:01:06;2.05;;;1.20;;
20535;SDS011;10426;49.420;8.390;2022-07-03T06:03:33;1.17;;;1.17;;
20535;SDS011;10426;49.420;8.390;2022-07-03T06:06:00;1.20;;;1.10;;
20535;SDS011;10426;49.420;8.390;2022-07-03T06:08:27;1.33;;;1.00;;
20535;SDS011;10426;49.420;8.390;2022-07-03T06:10:53;1.05;;;0.90;;
20535;SDS011;10426;49.420;8.390;2022-07-03T06:13:20;3.13;;;1.25;;
20535;SDS011;10426;49.420;8.390;2022-07-03T06:15:48;1.42;;;1.00;;
20535;SDS011;10426;49.420;8.390;2022-07-03T06:18:15;1.20;;;1.10;;
20535;SDS011;10426;49.420;8.390;2022-07-03T06:20:42;1.10;;;1.00;;
20535;SDS011;10426;49.420;8.390;2022-07-03T06:23:08;1.70;;;1.10;;
20535;SDS011;10426;49.420;8.390;2022-07-03T06:25:35;1.30;;;1.20;;
20535;SDS011;10426;49.420;8.390;2022-07-03T06:28:02;2.92;;;1.10;;
20535;SDS011;10426;49.420;8.390;2022-07-03T06:30:28;1.20;;;1.10;;
20535;SDS011;10426;49.420;8.390;2022-07-03T06:32:56;1.10;;;1.00;;
20535;SDS011;10426;49.420;8.390;2022-07-03T06:35:23;1.10;;;1.10;;
20535;SDS011;10426;49.420;8.390;2022-07-03T06:37:50;1.13;;;1.13;;
20535;SDS011;10426;49.420;8.390;2022-07-03T06:40:16;1.00;;;1.00;;
20535;SDS011;10426;49.420;8.390;2022-07-03T06:42:43;1.20;;;1.00;;
20535;SDS011;10426;49.420;8.390;2022-07-03T06:45:10;1.15;;;1.15;;
20535;SDS011;10426;49.420;8.390;2022-07-03T06:47:37;0.90;;;0.90;;
20535;SDS011;10426;49.420;8.390;2022-07-03T06:50:06;1.15;;;0.93;;
20535;SDS011;10426;49.420;8.390;2022-07-03T06:52:33;0.90;;;0.90;;
20535;SDS011;10426;49.420;8.390;2022-07-03T06:54:59;1.05;;;1.05;;
20535;SDS011;10426;49.420;8.390;2022-07-03T06:57:26;1.30;;;1.10;;
20535;SDS011;10426;49.420;8.390;2022-07-03T06:59:53;1.38;;;1.10;;
20535;SDS011;10426;49.420;8.390;2022-07-03T07:02:19;0.97;;;0.97;;
20535;SDS011;10426;49.420;8.390;2022-07-03T07:04:46;1.48;;;1.10;;
20535;SDS011;10426;49.420;8.390;2022-07-03T07:07:14;1.60;;;1.00;;
20535;SDS011;10426;49.420;8.390;2022-07-03T07:09:41;1.02;;;1.00;;
20535;SDS011;10426;49.420;8.390;2022-07-03T07:12:08;1.03;;;1.00;;
20535;SDS011;10426;49.420;8.390;2022-07-03T07:14:34;0.90;;;0.90;;
20535;SDS011;10426;49.420;8.390;2022-07-03T07:17:01;1.00;;;1.00;;
20535;SDS011;10426;49.420;8.390;2022-07-03T07:19:28;3.30;;;1.10;;
20535;SDS011;10426;49.420;8.390;2022-07-03T07:21:54;0.90;;;0.90;;
20535;SDS011;10426;49.420;8.390;2022-07-03T07:24:23;0.90;;;0.90;;
20535;SDS011;10426;49.420;8.390;2022-07-03T07:26:49;1.20;;;1.00;;
20535;SDS011;10426;49.420;8.390;2022-07-03T07:29:16;0.90;;;0.90;;
20535;SDS011;10426;49.420;8.390;2022-07-03T07:31:43;1.20;;;1.10;;
20535;SDS011;10426;49.420;8.390;2022-07-03T07:34:09;0.73;;;0.73;;
20535;SDS011;10426;49.420;8.390;2022-07-03T07:36:37;0.93;;;0.90;;
20535;SDS011;10426;49.420;8.390;2022-07-03T07:39:04;0.88;;;0.88;;
20535;SDS011;10426;49.420;8.390;2022-07-03T07:41:32;1.00;;;1.00;;
20535;SDS011;10426;49.420;8.390;2022-07-03T07:43:58;1.00;;;1.00;;
20535;SDS011;10426;49.420;8.390;2022-07-03T07:46:25;2.80;;;1.50;;
20535;SDS011;10426;49.420;8.390;2022-07-03T07:48:52;0.88;;;0.88;;
20535;SDS011;10426;49.420;8.390;2022-07-03T07:51:19;1.00;;;1.00;;
20535;SDS011;10426;49.420;8.390;2022-07-03T07:53:45;1.15;;;1.05;;
20535;SDS011;10426;49.420;8.390;2022-07-03T07:56:12;1.00;;;1.00;;
20535;SDS011;10426;49.420;8.390;2022-07-03T07:58:40;1.00;;;1.00;;
20535;SDS011;10426;49.420;8.390;2022-07-03T08:01:07;1.50;;;1.10;;
20535;SDS011;10426;49.420;8.390;2022-07-03T08:03:52;1.02;;;1.02;;
20535;SDS011;10426;49.420;8.390;2022-07-03T08:06:36;1.15;;;1.13;;
20535;SDS011;10426;49.420;8.390;2022-07-03T08:09:02;1.65;;;1.17;;
20535;SDS011;10426;49.420;8.390;2022-07-03T08:11:29;1.10;;;1.10;;
20535;SDS011;10426;49.420;8.390;2022-07-03T08:13:57;1.75;;;1.05;;
20535;SDS011;10426;49.420;8.390;2022-07-03T08:16:24;1.52;;;1.13;;
20535;SDS011;10426;49.420;8.390;2022-07-03T08:18:50;0.90;;;0.90;;
20535;SDS011;10426;49.420;8.390;2022-07-03T08:21:18;1.13;;;1.03;;
20535;SDS011;10426;49.420;8.390;2022-07-03T08:23:45;2.15;;;1.17;;
20535;SDS011;10426;49.420;8.390;2022-07-03T08:26:11;1.10;;;1.00;;
20535;SDS011;10426;49.420;8.390;2022-07-03T08:28:38;1.10;;;1.10;;
20535;SDS011;10426;49.420;8.390;2022-07-03T08:31:06;0.95;;;0.93;;
20535;SDS011;10426;49.420;8.390;2022-07-03T08:33:33;1.30;;;0.90;;
20535;SDS011;10426;49.420;8.390;2022-07-03T08:35:59;1.07;;;1.07;;
20535;SDS011;10426;49.420;8.390;2022-07-03T08:38:27;1.20;;;1.10;;
20535;SDS011;10426;49.420;8.390;2022-07-03T08:40:56;2.00;;;0.90;;
20535;SDS011;10426;49.420;8.390;2022-07-03T08:43:24;1.00;;;1.00;;
20535;SDS011;10426;49.420;8.390;2022-07-03T08:45:50;0.90;;;0.90;;
20535;SDS011;10426;49.420;8.390;2022-07-03T08:48:19;3.33;;;1.10;;
20535;SDS011;10426;49.420;8.390;2022-07-03T08:50:46;1.00;;;1.00;;
20535;SDS011;10426;49.420;8.390;2022-07-03T08:53:13;0.90;;;0.90;;
20535;SDS011;10426;49.420;8.390;2022-07-03T08:55:41;1.90;;;1.10;;
20535;SDS011;10426;49.420;8.390;2022-07-03T08:58:09;1.23;;;1.13;;
20535;SDS011;10426;49.420;8.390;2022-07-03T09:00:36;2.30;;;1.60;;
20535;SDS011;10426;49.420;8.390;2022-07-03T09:03:03;1.10;;;1.00;;
20535;SDS011;10426;49.420;8.390;2022-07-03T09:05:37;0.90;;;0.90;;
20535;SDS011;10426;49.420;8.390;2022-07-03T09:08:05;1.50;;;1.10;;
20535;SDS011;10426;49.420;8.390;2022-07-03T09:10:32;1.35;;;1.05;;
20535;SDS011;10426;49.420;8.390;2022-07-03T09:12:59;1.88;;;1.00;;
20535;SDS011;10426;49.420;8.390;2022-07-03T09:15:26;4.70;;;1.00;;
20535;SDS011;10426;49.420;8.390;2022-07-03T09:17:59;1.35;;;1.00;;
20535;SDS011;10426;49.420;8.390;2022-07-03T09:20:30;1.60;;;1.00;;
20535;SDS011;10426;49.420;8.390;2022-07-03T09:23:14;1.17;;;1.00;;
20535;SDS011;10426;49.420;8.390;2022-07-03T09:25:50;0.90;;;0.90;;
20535;SDS011;10426;49.420;8.390;2022-07-03T09:28:18;1.63;;;0.90;;
20535;SDS011;10426;49.420;8.390;2022-07-03T09:30:55;0.95;;;0.80;;
20535;SDS011;10426;49.420;8.390;2022-07-03T09:33:22;0.80;;;0.80;;
20535;SDS011;10426;49.420;8.390;2022-07-03T09:35:51;0.85;;;0.85;;
20535;SDS011;10426;49.420;8.390;2022-07-03T09:38:20;1.33;;;0.88;;
20535;SDS011;10426;49.420;8.390;2022-07-03T09:40:47;1.20;;;0.90;;
20535;SDS011;10426;49.420;8.390;2022-07-03T09:43:22;0.80;;;0.80;;
20535;SDS011;10426;49.420;8.390;2022-07-03T09:45:49;2.60;;;0.82;;
20535;SDS011;10426;49.420;8.390;2022-07-03T09:48:26;2.70;;;1.00;;
20535;SDS011;10426;49.420;8.390;2022-07-03T09:51:09;3.50;;;0.90;;
20535;SDS011;10426;49.420;8.390;2022-07-03T09:53:45;1.60;;;0.93;;
20535;SDS011;10426;49.420;8.390;2022-07-03T09:56:12;1.60;;;1.00;;
20535;SDS011;10426;49.420;8.390;2022-07-03T09:58:39;1.00;;;0.93;;
20535;SDS011;10426;49.420;8.390;2022-07-03T10:01:15;1.00;;;0.90;;
20535;SDS011;10426;49.420;8.390;2022-07-03T10:03:42;0.85;;;0.85;;
20535;SDS011;10426;49.420;8.390;2022-07-03T10:06:08;0.90;;;0.90;;
20535;SDS011;10426;49.420;8.390;2022-07-03T10:08:36;0.90;;;0.90;;
20535;SDS011;10426;49.420;8.390;2022-07-03T10:11:05;1.00;;;0.90;;
20535;SDS011;10426;49.420;8.390;2022-07-03T10:13:32;1.75;;;1.00;;
20535;SDS011;10426;49.420;8.390;2022-07-03T10:15:59;1.10;;;0.88;;
20535;SDS011;10426;49.420;8.390;2022-07-03T10:18:27;1.02;;;0.90;;
20535;SDS011;10426;49.420;8.390;2022-07-03T10:20:56;2.40;;;1.00;;
20535;SDS011;10426;49.420;8.390;2022-07-03T10:23:23;0.90;;;0.90;;
20535;SDS011;10426;49.420;8.390;2022-07-03T10:25:50;1.40;;;1.00;;
20535;SDS011;10426;49.420;8.390;2022-07-03T10:28:18;1.52;;;1.00;;
20535;SDS011;10426;49.420;8.390;2022-07-03T10:30:46;1.20;;;0.80;;
20535;SDS011;10426;49.420;8.390;2022-07-03T10:33:13;2.38;;;1.10;;
20535;SDS011;10426;49.420;8.390;2022-07-03T10:35:40;1.00;;;0.65;;
20535;SDS011;10426;49.420;8.390;2022-07-03T10:38:13;1.60;;;0.82;;
20535;SDS011;10426;49.420;8.390;2022-07-03T10:40:47;2.70;;;0.80;;
20535;SDS011;10426;49.420;8.390;2022-07-03T10:43:37;1.20;;;0.70;;
20535;SDS011;10426;49.420;8.390;2022-07-03T10:46:22;0.70;;;0.70;;
20535;SDS011;10426;49.420;8.390;2022-07-03T10:48:50;0.70;;;0.70;;
20535;SDS011;10426;49.420;8.390;2022-07-03T10:51:17;3.60;;;0.60;;
20535;SDS011;10426;49.420;8.390;2022-07-03T10:53:43;0.88;;;0.80;;
20535;SDS011;10426;49.420;8.390;2022-07-03T10:56:10;0.60;;;0.60;;
20535;SDS011;10426;49.420;8.390;2022-07-03T11:01:26;0.80;;;0.60;;
20535;SDS011;10426;49.420;8.390;2022-07-03T11:03:53;0.57;;;0.57;;
20535;SDS011;10426;49.420;8.390;2022-07-03T11:06:21;0.63;;;0.63;;
20535;SDS011;10426;49.420;8.390;2022-07-03T11:09:01;0.70;;;0.70;;
20535;SDS011;10426;49.420;8.390;2022-07-03T11:11:33;0.70;;;0.70;;
20535;SDS011;10426;49.420;8.390;2022-07-03T11:14:18;1.42;;;0.82;;
20535;SDS011;10426;49.420;8.390;2022-07-03T11:16:46;2.47;;;0.70;;
20535;SDS011;10426;49.420;8.390;2022-07-03T11:19:13;0.98;;;0.98;;
20535;SDS011;10426;49.420;8.390;2022-07-03T11:21:41;0.80;;;0.70;;
20535;SDS011;10426;49.420;8.390;2022-07-03T11:24:21;1.67;;;0.80;;
20535;SDS011;10426;49.420;8.390;2022-07-03T11:27:11;2.30;;;0.70;;
20535;SDS011;10426;49.420;8.390;2022-07-03T11:29:38;1.35;;;0.68;;
20535;SDS011;10426;49.420;8.390;2022-07-03T11:34:48;0.70;;;0.70;;
20535;SDS011;10426;49.420;8.390;2022-07-03T11:37:19;0.57;;;0.57;;
20535;SDS011;10426;49.420;8.390;2022-07-03T11:39:48;1.57;;;0.80;;
20535;SDS011;10426;49.420;8.390;2022-07-03T11:42:17;1.92;;;0.68;;
20535;SDS011;10426;49.420;8.390;2022-07-03T11:44:44;1.20;;;0.70;;
20535;SDS011;10426;49.420;8.390;2022-07-03T11:47:11;2.53;;;0.70;;
20535;SDS011;10426;49.420;8.390;2022-07-03T11:49:38;0.73;;;0.73;;
20535;SDS011;10426;49.420;8.390;2022-07-03T11:52:30;0.70;;;0.70;;
20535;SDS011;10426;49.420;8.390;2022-07-03T11:54:57;0.90;;;0.60;;
20535;SDS011;10426;49.420;8.390;2022-07-03T11:57:24;1.05;;;0.80;;
20535;SDS011;10426;49.420;8.390;2022-07-03T11:59:51;2.22;;;0.90;;
20535;SDS011;10426;49.420;8.390;2022-07-03T12:02:20;1.10;;;0.60;;
20535;SDS011;10426;49.420;8.390;2022-07-03T12:04:47;0.88;;;0.75;;
20535;SDS011;10426;49.420;8.390;2022-07-03T12:07:15;1.75;;;0.70;;
20535;SDS011;10426;49.420;8.390;2022-07-03T12:09:41;1.60;;;0.82;;
20535;SDS011;10426;49.420;8.390;2022-07-03T12:12:08;0.70;;;0.70;;
20535;SDS011;10426;49.420;8.390;2022-07-03T12:14:36;1.10;;;0.77;;
20535;SDS011;10426;49.420;8.390;2022-07-03T12:17:03;0.60;;;0.60;;
20535;SDS011;10426;49.420;8.390;2022-07-03T12:19:30;0.73;;;0.73;;
20535;SDS011;10426;49.420;8.390;2022-07-03T12:21:56;0.60;;;0.60;;
20535;SDS011;10426;49.420;8.390;2022-07-03T12:24:25;1.75;;;0.70;;
20535;SDS011;10426;49.420;8.390;2022-07-03T12:26:52;0.60;;;0.60;;
20535;SDS011;10426;49.420;8.390;2022-07-03T12:29:18;0.82;;;0.80;;
20535;SDS011;10426;49.420;8.390;2022-07-03T12:31:45;0.73;;;0.67;;
20535;SDS011;10426;49.420;8.390;2022-07-03T12:34:13;1.60;;;0.80;;
20535;SDS011;10426;49.420;8.390;2022-07-03T12:36:40;0.60;;;0.60;;
20535;SDS011;10426;49.420;8.390;2022-07-03T12:39:07;2.47;;;0.70;;
20535;SDS011;10426;49.420;8.390;2022-07-03T12:41:35;2.00;;;0.70;;
20535;SDS011;10426;49.420;8.390;2022-07-03T12:44:01;0.70;;;0.60;;
20535;SDS011;10426;49.420;8.390;2022-07-03T12:46:32;0.90;;;0.60;;
20535;SDS011;10426;49.420;8.390;2022-07-03T12:48:59;1.38;;;0.70;;
20535;SDS011;10426;49.420;8.390;2022-07-03T12:51:39;1.33;;;0.73;;
20535;SDS011;10426;49.420;8.390;2022-07-03T12:54:06;1.20;;;0.77;;
20535;SDS011;10426;49.420;8.390;2022-07-03T12:56:34;2.50;;;1.50;;
20535;SDS011;10426;49.420;8.390;2022-07-03T12:59:01;4.20;;;1.20;;
20535;SDS011;10426;49.420;8.390;2022-07-03T13:01:42;0.73;;;0.73;;
20535;SDS011;10426;49.420;8.390;2022-07-03T13:04:09;0.77;;;0.60;;
20535;SDS011;10426;49.420;8.390;2022-07-03T13:06:39;0.85;;;0.70;;
20535;SDS011;10426;49.420;8.390;2022-07-03T13:09:06;0.82;;;0.82;;
20535;SDS011;10426;49.420;8.390;2022-07-03T13:11:35;2.08;;;0.60;;
20535;SDS011;10426;49.420;8.390;2022-07-03T13:14:09;0.55;;;0.52;;
20535;SDS011;10426;49.420;8.390;2022-07-03T13:16:40;1.40;;;0.87;;
20535;SDS011;10426;49.420;8.390;2022-07-03T13:19:08;2.63;;;0.80;;
20535;SDS011;10426;49.420;8.390;2022-07-03T13:21:35;1.02;;;0.70;;
20535;SDS011;10426;49.420;8.390;2022-07-03T13:24:02;1.60;;;0.65;;
20535;SDS011;10426;49.420;8.390;2022-07-03T13:26:29;1.88;;;0.68;;
20535;SDS011;10426;49.420;8.390;2022-07-03T13:28:57;0.70;;;0.70;;
20535;SDS011;10426;49.420;8.390;2022-07-03T13:31:24;1.05;;;0.70;;
20535;SDS011;10426;49.420;8.390;2022-07-03T13:33:50;0.80;;;0.70;;
20535;SDS011;10426;49.420;8.390;2022-07-03T13:36:17;1.08;;;0.63;;
20535;SDS011;10426;49.420;8.390;2022-07-03T13:38:44;0.80;;;0.80;;
20535;SDS011;10426;49.420;8.390;2022-07-03T13:41:11;1.80;;;0.70;;
20535;SDS011;10426;49.420;8.390;2022-07-03T13:43:37;0.70;;;0.70;;
20535;SDS011;10426;49.420;8.390;2022-07-03T13:46:06;0.98;;;0.80;;
20535;SDS011;10426;49.420;8.390;2022-07-03T13:48:32;0.63;;;0.50;;
20535;SDS011;10426;49.420;8.390;2022-07-03T13:50:59;1.80;;;0.70;;
20535;SDS011;10426;49.420;8.390;2022-07-03T13:53:26;0.60;;;0.60;;
20535;SDS011;10426;49.420;8.390;2022-07-03T13:55:54;0.65;;;0.65;;
20535;SDS011;10426;49.420;8.390;2022-07-03T13:58:20;0.70;;;0.70;;
20535;SDS011;10426;49.420;8.390;2022-07-03T14:00:47;1.10;;;0.50;;
20535;SDS011;10426;49.420;8.390;2022-07-03T14:03:15;1.08;;;0.80;;
20535;SDS011;10426;49.420;8.390;2022-07-03T14:05:42;0.90;;;0.50;;
20535;SDS011;10426;49.420;8.390;2022-07-03T14:08:09;0.55;;;0.55;;
20535;SDS011;10426;49.420;8.390;2022-07-03T14:10:35;0.52;;;0.52;;
20535;SDS011;10426;49.420;8.390;2022-07-03T14:13:02;2.00;;;0.60;;
20535;SDS011;10426;49.420;8.390;2022-07-03T14:15:32;4.53;;;0.68;;
20535;SDS011;10426;49.420;8.390;2022-07-03T14:17:59;1.60;;;0.60;;
20535;SDS011;10426;49.420;8.390;2022-07-03T14:20:28;0.70;;;0.70;;
20535;SDS011;10426;49.420;8.390;2022-07-03T14:22:55;0.60;;;0.60;;
20535;SDS011;10426;49.420;8.390;2022-07-03T14:25:21;1.00;;;0.63;;
20535;SDS011;10426;49.420;8.390;2022-07-03T14:27:48;0.50;;;0.50;;
20535;SDS011;10426;49.420;8.390;2022-07-03T14:30:31;1.60;;;0.57;;
20535;SDS011;10426;49.420;8.390;2022-07-03T14:33:16;0.50;;;0.50;;
20535;SDS011;10426;49.420;8.390;2022-07-03T14:35:44;0.85;;;0.70;;
20535;SDS011;10426;49.420;8.390;2022-07-03T14:38:10;0.75;;;0.70;;
20535;SDS011;10426;49.420;8.390;2022-07-03T14:40:37;2.00;;;0.60;;
20535;SDS011;10426;49.420;8.390;2022-07-03T14:43:04;1.00;;;0.60;;
20535;SDS011;10426;49.420;8.390;2022-07-03T14:45:30;1.10;;;0.57;;
20535;SDS011;10426;49.420;8.390;2022-07-03T14:47:57;0.50;;;0.50;;
20535;SDS011;10426;49.420;8.390;2022-07-03T14:50:24;0.52;;;0.52;;
20535;SDS011;10426;49.420;8.390;2022-07-03T14:52:52;1.95;;;0.90;;
20535;SDS011;10426;49.420;8.390;2022-07-03T14:55:18;0.70;;;0.50;;
20535;SDS011;10426;49.420;8.390;2022-07-03T14:57:47;0.73;;;0.70;;
20535;SDS011;10426;49.420;8.390;2022-07-03T15:00:15;0.75;;;0.75;;
20535;SDS011;10426;49.420;8.390;2022-07-03T15:02:44;0.60;;;0.60;;